This is the latest recevied weather packets stored in our database for station/object WV8BRW. If no packets are shown the sender has not sent any weather packets the latest 10 day(s).
| Time | Temp. | Humidity | Pressure | Rain* | Wind** | Luminosity | Snow |
|---|---|---|---|---|---|---|---|
| 1777757488 | 13.89° C | 42% | 1013.6 hPa | 0 mm | - | 545 W/m² | - |
| 1777757188 | 13.89° C | 44% | 1013.7 hPa | 0 mm | - | 535 W/m² | - |
| 1777756885 | 12.78° C | 45% | 1013.6 hPa | 0 mm | - | 221 W/m² | - |
| 1777756580 | 12.78° C | 45% | 1013.4 hPa | 0 mm | - | 126 W/m² | - |
| 1777756278 | 12.78° C | 45% | 1013.7 hPa | 0 mm | - | 532 W/m² | - |
| 1777755975 | 12.78° C | 47% | 1013.7 hPa | 0 mm | - | 202 W/m² | - |
| 1777755672 | 12.78° C | 46% | 1013.4 hPa | 0 mm | - | 272 W/m² | - |
| 1777755369 | 12.78° C | 50% | 1013.6 hPa | 0 mm | - | 177 W/m² | - |
| 1777755066 | 12.22° C | 48% | 1013.3 hPa | 0 mm | - | 147 W/m² | - |
| 1777754762 | 12.22° C | 46% | 1013.5 hPa | 0 mm | - | 112 W/m² | - |
| 1777754460 | 12.22° C | 45% | 1013.5 hPa | 0 mm | - | 99 W/m² | - |
| 1777754157 | 12.78° C | 44% | 1013.6 hPa | 0 mm | - | 115 W/m² | - |
| 1777753854 | 12.78° C | 45% | 1013.5 hPa | 0 mm | - | 130 W/m² | - |
| 1777753550 | 13.89° C | 43% | 1013.5 hPa | 0 mm | - | 773 W/m² | - |
| 1777753248 | 13.33° C | 43% | 1013.7 hPa | 0 mm | - | 685 W/m² | - |
| 1777752944 | 13.33° C | 43% | 1013.8 hPa | 0 mm | - | 399 W/m² | - |
| 1777752641 | 12.78° C | 46% | 1013.8 hPa | 0 mm | - | 272 W/m² | - |
| 1777752337 | 12.78° C | 45% | 1013.9 hPa | 0 mm | - | 201 W/m² | - |
| 1777752035 | 12.78° C | 44% | 1014 hPa | 0 mm | - | 213 W/m² | - |
| 1777751732 | 12.78° C | 48% | 1014 hPa | 0 mm | - | 258 W/m² | - |
| 1777751428 | 12.22° C | 46% | 1013.9 hPa | 0 mm | - | 308 W/m² | - |
| 1777751125 | 12.22° C | 47% | 1013.9 hPa | 0 mm | - | 135 W/m² | - |
| 1777750821 | 12.78° C | 45% | 1013.9 hPa | 0 mm | - | 107 W/m² | - |
| 1777750518 | 12.78° C | 43% | 1014.1 hPa | 0 mm | - | 129 W/m² | - |
| 1777750215 | 13.33° C | 45% | 1013.9 hPa | 0 mm | - | 180 W/m² | - |
* Rain latest hour (hover to see other rain measurements)
** Current wind speed in m/s (hover to see current wind gust speed)